TimeCDT,TemperatureF,Dew PointF,Humidity,Sea Level PressureIn,VisibilityMPH,Wind Direction,Wind SpeedMPH,Gust SpeedMPH,PrecipitationIn,Events,Conditions,WindDirDegrees,DateUTC
12:54 AM,39.9,37.0,89,30.44,10.0,Calm,Calm,-,N/A,,Clear,0,2013-10-14 05:54:00
1:54 AM,39.0,35.1,86,30.43,10.0,Calm,Calm,-,N/A,,Clear,0,2013-10-14 06:54:00
2:54 AM,37.9,35.1,89,30.44,10.0,Calm,Calm,-,N/A,,Clear,0,2013-10-14 07:54:00
3:54 AM,37.9,36.0,93,30.44,10.0,Calm,Calm,-,N/A,Fog,Shallow Fog,0,2013-10-14 08:54:00
4:54 AM,37.9,34.0,86,30.44,10.0,Calm,Calm,-,N/A,,Clear,0,2013-10-14 09:54:00
5:54 AM,39.0,35.1,86,30.44,10.0,Calm,Calm,-,N/A,,Clear,0,2013-10-14 10:54:00
6:54 AM,37.0,33.1,86,30.43,10.0,NE,3.5,-,N/A,Fog,Shallow Fog,50,2013-10-14 11:54:00
7:54 AM,37.9,36.0,93,30.43,10.0,Calm,Calm,-,N/A,,Partly Cloudy,0,2013-10-14 12:54:00
8:54 AM,46.9,41.0,80,30.43,10.0,Calm,Calm,-,N/A,,Partly Cloudy,0,2013-10-14 13:54:00
9:54 AM,54.0,44.1,69,30.42,10.0,East,5.8,-,N/A,,Scattered Clouds,90,2013-10-14 14:54:00
10:54 AM,57.0,44.1,62,30.41,10.0,ESE,10.4,-,N/A,,Scattered Clouds,120,2013-10-14 15:54:00
11:54 AM,61.0,43.0,52,30.38,10.0,East,8.1,-,N/A,,Scattered Clouds,100,2013-10-14 16:54:00
12:54 PM,63.0,43.0,48,30.34,10.0,SE,9.2,-,N/A,,Scattered Clouds,130,2013-10-14 17:54:00
1:54 PM,63.0,42.1,46,30.30,10.0,ESE,10.4,-,N/A,,Scattered Clouds,120,2013-10-14 18:54:00
2:54 PM,64.0,41.0,43,30.27,10.0,ESE,11.5,18.4,N/A,,Scattered Clouds,120,2013-10-14 19:54:00
3:54 PM,63.0,41.0,45,30.24,10.0,ESE,15.0,19.6,N/A,,Scattered Clouds,110,2013-10-14 20:54:00
4:54 PM,61.0,42.1,50,30.23,10.0,East,12.7,-,N/A,,Scattered Clouds,100,2013-10-14 21:54:00
5:54 PM,57.9,42.1,56,30.23,10.0,ESE,12.7,-,N/A,,Partly Cloudy,110,2013-10-14 22:54:00
6:54 PM,55.0,41.0,59,30.23,10.0,East,11.5,-,N/A,,Partly Cloudy,100,2013-10-14 23:54:00
7:54 PM,52.0,42.1,69,30.22,10.0,East,11.5,-,N/A,,Partly Cloudy,90,2013-10-15 00:54:00
8:54 PM,51.1,43.0,74,30.20,10.0,East,10.4,-,N/A,,Clear,90,2013-10-15 01:54:00
9:54 PM,51.1,44.1,77,30.19,10.0,East,10.4,-,N/A,,Clear,100,2013-10-15 02:54:00
10:54 PM,51.1,45.0,80,30.16,10.0,East,12.7,-,N/A,,Scattered Clouds,100,2013-10-15 03:54:00
11:54 PM,50.0,45.0,83,30.14,10.0,ESE,8.1,-,N/A,,Scattered Clouds,120,2013-10-15 04:54:00